KTRM/TRM METAR and TAF weather

Enter ICAO airport designator
Station Type Date Time Source
KTRM METAR 2019/06/19 00:52 UTC NOAA

KTRM 190052Z AUTO 14008KT 10SM CLR 39/05 A2970 RMK AO2 SLP060 T03890050


Station Type Date Time Source
KTRM Decoded METAR 2019/06/19 00:52 UTC NOAA

Palm Springs, Jacqueline Cochran Regional Airport, CA, United States (KTRM) 33-37-36N 116-09-34W
Jun 18, 2019 - 08:52 PM EDT / 2019.06.19 0052 UTC
Wind: from the SE (140 degrees) at 9 MPH (8 KT):0
Visibility: 10 mile(s):0
Sky conditions: clear
Temperature: 102.0 F (38.9 C)
Dew Point: 41.0 F (5.0 C)
Relative Humidity: 12%
Pressure (altimeter): 29.7 in. Hg (1005 hPa)
ob: KTRM 190052Z AUTO 14008KT 10SM CLR 39/05 A2970 RMK AO2 SLP060 T03890050
cycle: 1

Station Type Date Time Source
KTRM TAF 2019/06/18 18:33 UTC NOAA

TAF KTRM 181730Z 1818/1918 14010KT P6SM SKC
FM190300 33008KT P6SM SKC

Example: see airport list